createdAt,value
2023-04-08T00:03:46.995Z,24.52
2023-04-08T00:13:50.300Z,24.50
2023-04-08T00:23:53.453Z,24.49
2023-04-08T00:33:56.653Z,24.50
2023-04-08T00:43:59.810Z,24.49
2023-04-08T00:54:02.993Z,24.49
2023-04-08T01:04:06.285Z,24.47
2023-04-08T01:14:09.498Z,24.47
2023-04-08T01:24:12.655Z,24.45
2023-04-08T01:34:15.863Z,24.44
2023-04-08T01:44:19.016Z,24.44
2023-04-08T01:54:22.221Z,24.44
2023-04-08T02:04:25.481Z,24.42
2023-04-08T02:14:28.761Z,24.41
2023-04-08T02:24:31.945Z,24.41
2023-04-08T02:34:35.141Z,24.41
2023-04-08T02:44:38.294Z,24.41
2023-04-08T02:54:41.492Z,24.39
2023-04-08T03:04:44.649Z,24.38
2023-04-08T03:14:47.849Z,24.39
2023-04-08T03:24:51.003Z,24.38
2023-04-08T03:34:54.193Z,24.39
2023-04-08T03:44:57.353Z,24.38
2023-04-08T03:55:00.541Z,24.37
2023-04-08T04:05:03.703Z,24.37
2023-04-08T04:15:06.966Z,24.37
2023-04-08T04:25:10.136Z,24.37
2023-04-08T04:35:13.361Z,24.38
2023-04-08T04:45:16.520Z,24.39
2023-04-08T04:55:19.737Z,24.39
2023-04-08T05:05:23.046Z,24.41
2023-04-08T05:15:26.284Z,24.41
2023-04-08T05:25:29.447Z,24.39
2023-04-08T05:35:32.671Z,24.39
2023-04-08T05:45:35.841Z,24.41
2023-04-08T05:55:39.039Z,24.39
2023-04-08T06:05:42.201Z,24.38
2023-04-08T06:15:45.400Z,24.38
2023-04-08T06:25:48.574Z,24.39
2023-04-08T06:35:51.913Z,24.39
2023-04-08T06:45:55.128Z,24.39
2023-04-08T06:55:58.354Z,24.41
2023-04-08T07:06:01.612Z,24.41
2023-04-08T07:16:04.830Z,24.41
2023-04-08T07:26:07.985Z,24.39
2023-04-08T07:36:11.192Z,24.41
2023-04-08T07:46:14.408Z,24.39
2023-04-08T07:56:17.602Z,24.41
2023-04-08T08:06:21.086Z,24.41
2023-04-08T08:16:24.507Z,24.41
2023-04-08T08:26:27.687Z,24.44
2023-04-08T08:36:31.767Z,24.39
2023-04-08T08:46:33.450Z,24.39
2023-04-08T08:56:36.693Z,24.42
2023-04-08T09:06:39.870Z,24.42
2023-04-08T09:16:43.211Z,24.41
2023-04-08T09:26:46.414Z,24.41
2023-04-08T09:36:49.629Z,24.42
2023-04-08T09:46:52.891Z,24.44
2023-04-08T09:56:56.097Z,24.44
2023-04-08T10:06:59.259Z,24.42
2023-04-08T10:17:02.545Z,24.41
2023-04-08T10:27:05.787Z,24.41
2023-04-08T10:37:08.989Z,24.39
2023-04-08T10:47:12.150Z,24.39
2023-04-08T10:57:15.336Z,24.38
2023-04-08T11:07:18.495Z,24.39
2023-04-08T11:17:21.697Z,24.38
2023-04-08T11:27:24.852Z,24.37
2023-04-08T11:37:29.526Z,24.35
2023-04-08T11:47:32.879Z,24.35
2023-04-08T11:57:36.064Z,24.34
2023-04-08T12:07:39.208Z,24.32
2023-04-08T12:17:42.443Z,24.31
2023-04-08T12:27:45.643Z,24.29
2023-04-08T12:37:48.846Z,24.29
2023-04-08T12:47:52.029Z,24.29
2023-04-08T12:57:55.229Z,24.29
2023-04-08T13:07:58.384Z,24.29
2023-04-08T13:18:01.684Z,24.26
2023-04-08T13:28:04.869Z,24.26
2023-04-08T13:38:08.071Z,24.24
2023-04-08T13:48:11.239Z,24.23
2023-04-08T13:58:23.283Z,24.22
2023-04-08T14:08:18.387Z,24.19
2023-04-08T14:18:21.576Z,24.20
2023-04-08T14:28:24.768Z,24.19
2023-04-08T14:38:27.969Z,24.17
2023-04-08T14:48:31.117Z,24.14
2023-04-08T14:58:34.308Z,24.13
2023-04-08T15:08:37.546Z,24.13
2023-04-08T15:18:40.753Z,24.13
2023-04-08T15:28:43.940Z,24.12
2023-04-08T15:38:47.149Z,24.10
2023-04-08T15:48:50.629Z,24.08
2023-04-08T15:58:54.318Z,24.07
2023-04-08T16:08:57.605Z,24.07
2023-04-08T16:19:00.809Z,24.05
2023-04-08T16:29:04.101Z,24.02
2023-04-08T16:39:07.285Z,24.04
2023-04-08T16:49:12.360Z,24.01
2023-04-08T16:59:14.384Z,24.01
2023-04-08T17:09:17.530Z,24.00
2023-04-08T17:19:20.731Z,24.00
2023-04-08T17:29:23.880Z,23.97
2023-04-08T17:39:27.074Z,23.95
2023-04-08T17:49:30.256Z,23.95
2023-04-08T17:59:33.475Z,23.92
2023-04-08T18:09:36.632Z,23.92
2023-04-08T18:19:39.865Z,23.89
2023-04-08T18:29:43.023Z,23.86
2023-04-08T18:39:46.209Z,23.86
2023-04-08T18:49:49.358Z,23.85
2023-04-08T18:59:52.574Z,23.85
2023-04-08T19:09:55.725Z,23.83
2023-04-08T19:19:58.991Z,23.82
2023-04-08T19:30:02.168Z,23.80
2023-04-08T19:40:05.348Z,23.79
2023-04-08T19:50:08.516Z,23.77
2023-04-08T20:00:13.994Z,23.75
2023-04-08T20:10:14.862Z,23.76
2023-04-08T20:20:18.063Z,23.75
2023-04-08T20:30:21.224Z,23.72
2023-04-08T20:40:24.464Z,23.71
2023-04-08T20:50:27.610Z,23.68
2023-04-08T21:00:30.807Z,23.68
2023-04-08T21:10:33.962Z,23.67
2023-04-08T21:20:37.150Z,23.67
2023-04-08T21:30:40.294Z,23.64
2023-04-08T21:40:43.493Z,23.64
2023-04-08T21:50:46.642Z,23.64
2023-04-08T22:00:49.855Z,23.60
2023-04-08T22:10:53.069Z,23.61
2023-04-08T22:20:56.304Z,23.61
2023-04-08T22:30:59.527Z,23.60
2023-04-08T22:41:02.714Z,23.58
2023-04-08T22:51:05.869Z,23.55
2023-04-08T23:01:09.129Z,23.55
2023-04-08T23:11:12.302Z,23.55
2023-04-08T23:21:15.511Z,23.53
2023-04-08T23:31:18.704Z,23.52
2023-04-08T23:41:21.925Z,23.50
2023-04-08T23:51:25.089Z,23.49
